createdAt,value
2018-02-24T08:10:22.408Z,54.43
2018-02-24T08:10:23.987Z,54.40
2018-02-24T08:11:24.461Z,54.00
2018-02-24T08:12:24.932Z,53.57
2018-02-24T08:13:25.411Z,53.31
2018-02-24T08:14:25.887Z,53.00
2018-02-24T08:17:27.313Z,52.17
2018-02-24T08:18:27.789Z,52.27
2018-02-24T08:19:28.266Z,51.98
2018-02-24T08:20:28.791Z,51.66
2018-02-24T08:21:29.212Z,51.50
2018-02-24T08:22:29.692Z,51.35
2018-02-24T08:23:30.168Z,51.21
2018-02-24T08:25:31.168Z,50.84
2018-02-24T08:26:31.795Z,50.64
2018-02-24T08:27:32.069Z,50.41
2018-02-24T08:28:32.543Z,50.14
2018-02-24T08:29:33.034Z,49.97
2018-02-24T08:30:33.492Z,49.71
2018-02-24T08:32:34.437Z,49.51
2018-02-24T08:33:34.915Z,49.31
2018-02-24T08:34:35.392Z,49.22
2018-02-24T08:35:47.148Z,49.14
2018-02-24T08:36:36.336Z,49.00
2018-02-24T08:37:36.810Z,49.00
2018-02-24T08:38:37.281Z,48.83
2018-02-24T08:39:37.750Z,48.84
2018-02-24T08:41:38.701Z,48.61
2018-02-24T08:42:39.172Z,48.65
2018-02-24T08:43:39.640Z,48.53
2018-02-24T08:47:41.535Z,48.17
2018-02-24T08:48:42.006Z,48.11
2018-02-24T08:49:42.479Z,48.15
2018-02-24T08:50:42.950Z,47.94
2018-02-24T08:51:43.675Z,47.92
2018-02-24T08:52:43.899Z,47.84
2018-02-24T08:53:44.367Z,47.79
2018-02-24T08:54:44.836Z,47.61
2018-02-24T08:55:45.313Z,47.59
2018-02-24T08:56:45.785Z,47.35
2018-02-24T08:57:46.257Z,47.42
2018-02-24T08:58:46.733Z,47.28
2018-02-24T08:59:47.203Z,47.22
2018-02-24T09:00:47.679Z,47.11
2018-02-24T09:02:48.621Z,46.84
2018-02-24T09:03:49.098Z,46.64
2018-02-24T09:04:49.769Z,46.58
2018-02-24T09:05:50.043Z,46.43
2018-02-24T09:06:50.516Z,46.35
2018-02-24T09:07:50.991Z,46.23
2018-02-24T09:09:51.938Z,45.81
2018-02-24T09:10:52.412Z,45.76
2018-02-24T09:12:04.372Z,45.61
2018-02-24T09:13:53.837Z,45.28
2018-02-24T09:15:54.787Z,45.14
2018-02-24T09:16:55.313Z,44.93
2018-02-24T09:17:55.734Z,44.84
2018-02-24T09:18:56.211Z,44.76
2018-02-24T09:19:56.690Z,44.64
2018-02-24T09:20:57.158Z,44.52
2018-02-24T09:22:09.376Z,44.53
2018-02-24T09:23:58.593Z,44.26
2018-02-24T09:24:59.066Z,44.30
2018-02-24T09:25:59.542Z,44.24
2018-02-24T09:27:00.070Z,44.25
2018-02-24T09:29:00.972Z,43.89
2018-02-24T09:30:01.447Z,43.64
2018-02-24T09:31:01.923Z,43.42
2018-02-24T09:32:02.451Z,43.40
2018-02-24T09:33:02.877Z,43.24
2018-02-24T09:34:03.354Z,43.12
2018-02-24T09:35:03.830Z,42.87
2018-02-24T09:36:04.305Z,42.85
2018-02-24T09:37:04.777Z,42.76
2018-02-24T09:38:05.258Z,42.74
2018-02-24T09:39:05.734Z,42.51
2018-02-24T09:40:06.210Z,42.40
2018-02-24T09:41:06.688Z,42.63
2018-02-24T09:42:07.155Z,42.28
2018-02-24T09:43:07.636Z,42.16
2018-02-24T09:45:08.584Z,41.56
2018-02-24T09:46:09.061Z,41.79
2018-02-24T09:47:09.586Z,41.93
2018-02-24T09:48:10.006Z,41.87
2018-02-24T09:49:10.482Z,42.00
2018-02-24T09:50:10.958Z,41.85
2018-02-24T09:51:11.431Z,41.85
2018-02-24T09:52:11.954Z,41.80
2018-02-24T09:53:12.402Z,41.67
2018-02-24T09:54:12.848Z,41.48
2018-02-24T09:56:13.797Z,41.17
2018-02-24T09:58:14.750Z,40.92
2018-02-24T09:59:15.216Z,40.66
2018-02-24T10:00:15.690Z,40.63
2018-02-24T10:01:16.362Z,40.25
2018-02-24T10:03:17.106Z,40.09
2018-02-24T10:04:17.577Z,39.54
2018-02-24T10:05:18.047Z,39.51
2018-02-24T10:06:18.522Z,39.55
2018-02-24T10:07:19.044Z,39.33
2018-02-24T10:08:19.467Z,39.43
2018-02-24T10:09:19.941Z,39.27
2018-02-24T10:10:20.410Z,39.08
2018-02-24T10:11:20.912Z,39.08
2018-02-24T10:12:21.358Z,38.96
2018-02-24T10:13:21.830Z,38.90
2018-02-24T10:14:22.304Z,38.64
2018-02-24T10:15:22.775Z,38.64
2018-02-24T10:16:23.247Z,38.48
2018-02-24T10:17:23.926Z,38.42
2018-02-24T10:18:24.198Z,38.26
2018-02-24T10:19:24.674Z,38.00
2018-02-24T10:20:25.144Z,37.84
2018-02-24T10:21:25.619Z,37.91
2018-02-24T10:22:26.093Z,37.75
2018-02-24T10:23:26.561Z,37.62
2018-02-24T10:24:27.042Z,37.53
2018-02-24T10:25:27.516Z,37.30
2018-02-24T10:26:27.989Z,37.31
2018-02-24T10:27:28.460Z,37.11
2018-02-24T10:28:29.142Z,37.26
2018-02-24T10:29:29.417Z,36.83
2018-02-24T10:30:29.890Z,36.87
2018-02-24T10:31:30.365Z,36.77
2018-02-24T10:32:30.847Z,36.71
2018-02-24T10:33:31.319Z,36.68
2018-02-24T10:34:31.991Z,36.55
2018-02-24T10:36:32.747Z,36.23
2018-02-24T10:37:33.425Z,36.10
2018-02-24T10:38:33.694Z,35.91
2018-02-24T10:39:34.177Z,35.78
2018-02-24T10:41:35.129Z,35.45
2018-02-24T10:42:35.605Z,35.46
2018-02-24T10:43:36.082Z,35.33
2018-02-24T10:44:36.561Z,35.06
2018-02-24T10:45:37.031Z,34.97
2018-02-24T10:46:37.513Z,34.87
2018-02-24T10:47:37.989Z,34.60
2018-02-24T10:48:38.465Z,34.47
2018-02-24T10:49:38.936Z,34.27
2018-02-24T10:50:39.417Z,34.25
2018-02-24T10:51:39.894Z,34.08
2018-02-24T10:52:40.369Z,33.95
2018-02-24T10:53:40.845Z,33.92
2018-02-24T10:54:41.316Z,33.82
2018-02-24T10:55:41.795Z,33.73
2018-02-24T10:56:42.270Z,33.56
2018-02-24T10:57:42.952Z,33.49
2018-02-24T10:58:43.222Z,33.43
2018-02-24T10:59:43.695Z,33.30
2018-02-24T11:00:44.169Z,33.17
2018-02-24T11:01:44.645Z,33.10
2018-02-24T11:02:45.117Z,33.10
2018-02-24T11:03:45.591Z,32.90
2018-02-24T11:04:46.066Z,32.73
2018-02-24T11:05:46.810Z,32.70
2018-02-24T11:06:47.011Z,32.71
2018-02-24T11:09:48.433Z,32.38
2018-02-24T11:10:48.904Z,32.31
2018-02-24T11:11:49.373Z,32.25
2018-02-24T11:12:49.853Z,32.18
2018-02-24T11:14:50.796Z,31.91
2018-02-24T11:15:51.269Z,31.91
2018-02-24T11:16:51.741Z,31.71
2018-02-24T11:18:52.679Z,31.65
2018-02-24T11:19:53.160Z,31.51
2018-02-24T11:21:54.104Z,31.31
2018-02-24T11:22:54.578Z,31.31
2018-02-24T11:23:55.044Z,31.14
2018-02-24T11:24:55.523Z,31.11
2018-02-24T11:25:55.995Z,31.25
2018-02-24T11:26:56.470Z,31.15
2018-02-24T11:27:57.144Z,30.98
2018-02-24T11:29:57.888Z,30.94
2018-02-24T11:30:58.357Z,30.91
2018-02-24T11:32:59.316Z,30.88
2018-02-24T11:33:59.784Z,30.84
2018-02-24T11:35:00.254Z,30.80
2018-02-24T11:36:00.737Z,30.77
2018-02-24T11:37:01.209Z,30.83
2018-02-24T11:38:01.683Z,30.79
2018-02-24T11:39:02.208Z,30.86
2018-02-24T11:40:02.628Z,30.96
2018-02-24T11:41:03.110Z,31.09
2018-02-24T11:42:03.584Z,31.19
2018-02-24T11:43:04.060Z,31.32
2018-02-24T11:45:05.012Z,31.41
2018-02-24T11:46:05.486Z,31.51
2018-02-24T11:47:05.956Z,31.74
2018-02-24T11:48:06.441Z,31.83
2018-02-24T11:49:06.967Z,31.96
2018-02-24T11:51:07.868Z,32.32
2018-02-24T11:52:08.346Z,32.59
2018-02-24T11:53:08.820Z,32.72
2018-02-24T11:54:09.298Z,32.98
2018-02-24T11:55:09.776Z,33.08
2018-02-24T11:56:10.247Z,33.17
2018-02-24T11:58:11.207Z,33.87
2018-02-24T12:00:12.208Z,33.96
2018-02-24T12:01:12.635Z,34.15
2018-02-24T12:02:13.110Z,34.28
2018-02-24T12:03:13.585Z,34.47
2018-02-24T12:04:14.062Z,34.70
2018-02-24T12:05:14.536Z,34.80
2018-02-24T12:07:15.484Z,35.05
2018-02-24T12:08:15.962Z,35.42
2018-02-24T12:09:16.640Z,35.54
2018-02-24T12:10:16.962Z,35.57
2018-02-24T12:11:17.387Z,35.73
2018-02-24T12:12:17.860Z,35.86
2018-02-24T12:13:18.538Z,36.02
2018-02-24T12:14:18.810Z,36.15
2018-02-24T12:15:31.378Z,36.31
2018-02-24T12:16:19.754Z,36.34
2018-02-24T12:18:20.699Z,36.56
2018-02-24T12:19:21.179Z,36.78
2018-02-24T12:20:21.649Z,37.05
2018-02-24T12:21:22.122Z,37.04
2018-02-24T12:22:22.592Z,37.06
2018-02-24T12:23:23.069Z,37.23
2018-02-24T12:24:23.540Z,37.49
2018-02-24T12:25:24.013Z,37.68
2018-02-24T12:26:24.484Z,37.54
2018-02-24T12:27:24.957Z,37.77
2018-02-24T12:28:25.427Z,37.76
2018-02-24T12:29:25.900Z,37.86
2018-02-24T12:30:26.423Z,37.42
2018-02-24T12:31:26.851Z,37.98
2018-02-24T12:32:27.320Z,37.84
2018-02-24T12:33:27.785Z,37.83
2018-02-24T12:34:28.464Z,38.42
2018-02-24T12:35:28.783Z,38.65
2018-02-24T12:37:29.680Z,38.54
2018-02-24T12:38:30.151Z,38.80
2018-02-24T12:39:30.624Z,39.06
2018-02-24T12:40:31.091Z,39.06
2018-02-24T12:41:31.570Z,39.38
2018-02-24T12:42:32.043Z,39.05
2018-02-24T12:44:32.989Z,39.63
2018-02-24T12:45:33.462Z,39.60
2018-02-24T12:47:34.408Z,39.75
2018-02-24T12:48:34.883Z,39.95
2018-02-24T12:49:35.358Z,40.01
2018-02-24T12:50:35.882Z,40.14
2018-02-24T12:51:36.304Z,40.03
2018-02-24T12:52:36.778Z,40.29
2018-02-24T12:53:37.255Z,40.52
2018-02-24T12:54:37.734Z,40.58
2018-02-24T12:55:38.204Z,40.65
2018-02-24T12:56:38.674Z,40.90
2018-02-24T12:57:39.155Z,40.97
2018-02-24T12:58:39.832Z,41.16
2018-02-24T12:59:40.105Z,41.15
2018-02-24T13:00:40.631Z,41.54
2018-02-24T13:01:41.057Z,41.61
2018-02-24T13:02:41.572Z,41.67
2018-02-24T13:03:42.008Z,41.73
2018-02-24T13:04:42.487Z,41.72
2018-02-24T13:05:54.399Z,42.08
2018-02-24T13:06:43.438Z,42.11
2018-02-24T13:07:43.909Z,41.98
2018-02-24T13:08:44.389Z,42.23
2018-02-24T13:09:44.859Z,42.03
2018-02-24T13:10:45.343Z,42.39
2018-02-24T13:12:46.294Z,42.57
2018-02-24T13:13:46.770Z,42.83
2018-02-24T13:14:47.449Z,42.83
2018-02-24T13:16:48.191Z,43.14
2018-02-24T13:17:48.875Z,43.17
2018-02-24T13:18:49.152Z,43.36
2018-02-24T13:20:50.097Z,43.70
2018-02-24T13:21:50.569Z,43.80
2018-02-24T13:22:51.048Z,43.95
2018-02-24T13:23:51.522Z,44.05
2018-02-24T13:24:51.997Z,44.14
2018-02-24T13:25:52.470Z,44.29
2018-02-24T13:27:53.412Z,44.28
2018-02-24T13:28:53.889Z,44.28
2018-02-24T13:30:54.886Z,44.43
2018-02-24T13:31:55.309Z,44.33
2018-02-24T13:32:55.780Z,44.39
2018-02-24T13:33:56.457Z,44.51
2018-02-24T13:34:56.725Z,44.57
2018-02-24T13:35:57.197Z,44.50
2018-02-24T13:36:57.673Z,44.69
2018-02-24T13:38:58.616Z,44.87
2018-02-24T13:39:59.094Z,44.93
2018-02-24T13:43:00.499Z,45.30
2018-02-24T13:44:00.975Z,45.45
2018-02-24T13:45:01.446Z,45.42
2018-02-24T13:46:01.969Z,45.67
2018-02-24T13:47:02.394Z,45.79
2018-02-24T13:48:02.865Z,45.75
2018-02-24T13:49:03.331Z,45.94
2018-02-24T13:50:03.808Z,45.84
2018-02-24T13:51:04.332Z,46.15
2018-02-24T13:52:04.755Z,46.08
2018-02-24T13:53:05.226Z,46.27
2018-02-24T13:54:05.697Z,46.14
2018-02-24T13:55:06.172Z,46.33
2018-02-24T13:56:06.645Z,46.51
2018-02-24T13:57:07.117Z,46.48
2018-02-24T13:58:07.591Z,46.53
2018-02-24T13:59:08.064Z,46.50
2018-02-24T14:00:08.538Z,46.65
2018-02-24T14:01:09.017Z,46.59
2018-02-24T14:03:09.960Z,46.90
2018-02-24T14:04:10.433Z,46.92
2018-02-24T14:05:10.909Z,46.76
2018-02-24T14:06:11.435Z,46.92
2018-02-24T14:07:11.852Z,46.91
2018-02-24T14:08:12.335Z,47.00
2018-02-24T14:09:12.807Z,47.10
2018-02-24T14:10:13.281Z,46.90
2018-02-24T14:11:13.761Z,47.06
2018-02-24T14:12:14.232Z,47.12
2018-02-24T14:13:14.707Z,47.08
2018-02-24T14:14:15.179Z,47.14
2018-02-24T14:15:15.661Z,47.11
2018-02-24T14:16:16.185Z,47.29
2018-02-24T14:17:16.616Z,47.13
2018-02-24T14:18:17.085Z,47.29
2018-02-24T14:19:17.566Z,47.31
2018-02-24T14:20:18.038Z,47.25
2018-02-24T14:21:18.514Z,47.34
2018-02-24T14:22:18.989Z,47.36
2018-02-24T14:23:19.467Z,47.42
2018-02-24T14:24:19.946Z,47.48
2018-02-24T14:25:20.614Z,47.48
2018-02-24T14:28:21.837Z,47.66
2018-02-24T14:29:22.325Z,47.65
2018-02-24T14:30:22.792Z,47.65
2018-02-24T14:33:24.222Z,47.76
2018-02-24T14:34:24.692Z,47.88
2018-02-24T14:35:25.167Z,47.81
2018-02-24T14:36:25.642Z,47.81
2018-02-24T14:37:26.113Z,47.93
2018-02-24T14:39:27.059Z,48.11
2018-02-24T14:40:27.534Z,48.07
2018-02-24T14:41:28.009Z,48.19
2018-02-24T14:42:28.480Z,48.22
2018-02-24T14:43:28.955Z,48.31
2018-02-24T14:44:29.425Z,48.33
2018-02-24T14:45:29.897Z,48.42
2018-02-24T14:46:30.370Z,48.45
2018-02-24T14:47:42.479Z,48.54
2018-02-24T14:50:32.261Z,48.68
2018-02-24T14:51:32.730Z,48.80
2018-02-24T14:52:33.248Z,48.89
2018-02-24T14:53:33.671Z,48.82
2018-02-24T14:54:34.146Z,48.91
2018-02-24T14:55:34.616Z,48.97
2018-02-24T14:56:35.090Z,48.96
2018-02-24T14:57:35.558Z,49.02
2018-02-24T14:58:36.032Z,49.11
2018-02-24T14:59:36.498Z,48.98
2018-02-24T15:00:36.974Z,48.98
2018-02-24T15:01:37.446Z,49.04
2018-02-24T15:02:37.971Z,49.09
2018-02-24T15:03:38.392Z,49.09
2018-02-24T15:05:39.338Z,49.02
2018-02-24T15:06:39.813Z,49.11
2018-02-24T15:07:40.282Z,49.17
2018-02-24T15:08:40.752Z,49.13
2018-02-24T15:09:41.226Z,49.10
2018-02-24T15:10:41.697Z,49.03
2018-02-24T15:11:42.173Z,49.15
2018-02-24T15:12:42.646Z,49.21
2018-02-24T15:13:43.125Z,49.14
2018-02-24T15:14:43.594Z,49.11
2018-02-24T15:15:44.070Z,49.08
2018-02-24T15:16:44.535Z,49.13
2018-02-24T15:17:45.064Z,49.19
2018-02-24T15:18:45.488Z,49.25
2018-02-24T15:19:45.962Z,49.25
2018-02-24T15:20:46.434Z,49.24
2018-02-24T15:21:46.911Z,49.18
2018-02-24T15:22:47.383Z,49.23
2018-02-24T15:23:47.852Z,49.17
2018-02-24T15:24:48.332Z,49.26
2018-02-24T15:25:48.807Z,49.35
2018-02-24T15:26:49.283Z,49.37
2018-02-24T15:27:49.754Z,49.46
2018-02-24T15:28:50.233Z,49.45
2018-02-24T15:29:50.707Z,49.46
2018-02-24T15:30:51.184Z,49.51
2018-02-24T15:31:51.660Z,49.54
2018-02-24T15:32:52.132Z,49.51
2018-02-24T15:33:52.608Z,49.53
2018-02-24T15:34:53.081Z,49.56
2018-02-24T15:35:53.559Z,49.65
2018-02-24T15:37:54.510Z,49.67
2018-02-24T15:38:54.984Z,49.70
2018-02-24T15:39:55.462Z,49.75
2018-02-24T15:40:55.938Z,49.75
2018-02-24T15:41:56.412Z,49.84
2018-02-24T15:42:56.887Z,49.83
2018-02-24T15:43:57.366Z,49.80
2018-02-24T15:44:57.837Z,49.80
2018-02-24T15:45:58.309Z,49.79
2018-02-24T15:46:58.786Z,49.82
2018-02-24T15:47:59.313Z,49.79
2018-02-24T15:48:59.734Z,49.87
2018-02-24T15:51:00.681Z,49.83
2018-02-24T15:52:01.155Z,49.86
2018-02-24T15:53:01.680Z,49.88
2018-02-24T15:54:02.103Z,49.91
2018-02-24T15:55:02.574Z,49.96
2018-02-24T15:56:03.045Z,49.90
2018-02-24T15:57:03.517Z,49.90
2018-02-24T15:58:03.989Z,49.95
2018-02-24T15:59:04.463Z,49.95
2018-02-24T16:00:05.136Z,49.94
2018-02-24T16:01:05.406Z,49.94
2018-02-24T16:02:05.878Z,49.99
2018-02-24T16:03:06.399Z,50.08
2018-02-24T16:04:06.821Z,50.10
2018-02-24T16:05:07.291Z,50.22
2018-02-24T16:06:07.764Z,50.36
2018-02-24T16:07:08.234Z,50.41
2018-02-24T16:08:08.705Z,50.56
2018-02-24T16:09:09.177Z,50.61
2018-02-24T16:10:09.648Z,50.75
2018-02-24T16:11:10.118Z,50.98
2018-02-24T16:12:10.591Z,51.11
2018-02-24T16:13:11.068Z,51.22
2018-02-24T16:14:11.535Z,51.27
2018-02-24T16:15:12.004Z,51.47
2018-02-24T16:16:12.476Z,51.56
2018-02-24T16:17:12.950Z,51.66
2018-02-24T16:18:13.420Z,51.83
2018-02-24T16:19:13.892Z,51.97
2018-02-24T16:20:14.363Z,52.08
2018-02-24T16:21:14.837Z,52.22
2018-02-24T16:22:15.311Z,52.41
2018-02-24T16:23:15.832Z,52.61
2018-02-24T16:24:16.254Z,52.78
2018-02-24T16:25:16.723Z,52.86
2018-02-24T16:26:17.195Z,52.94
2018-02-24T16:27:17.717Z,53.11
2018-02-24T16:28:18.142Z,53.16
2018-02-24T16:29:18.612Z,53.21
2018-02-24T16:30:19.288Z,53.35
2018-02-24T16:31:19.558Z,53.34
2018-02-24T16:32:20.030Z,53.60
2018-02-24T16:33:20.504Z,53.56
2018-02-24T16:34:20.977Z,53.64
2018-02-24T16:35:21.451Z,53.70
2018-02-24T16:36:21.930Z,53.75
2018-02-24T16:37:22.399Z,53.86
2018-02-24T16:38:22.886Z,53.85
2018-02-24T16:41:24.297Z,54.07
2018-02-24T16:42:24.770Z,54.15
2018-02-24T16:44:25.718Z,54.17
2018-02-24T16:45:26.191Z,54.19
2018-02-24T16:46:26.664Z,54.18
2018-02-24T16:47:27.139Z,54.27
2018-02-24T16:48:27.664Z,54.29
2018-02-24T16:49:28.087Z,54.34
2018-02-24T16:50:28.562Z,54.36
2018-02-24T16:51:29.039Z,54.44
2018-02-24T16:52:29.552Z,54.50
2018-02-24T16:53:29.988Z,54.49
2018-02-24T16:54:30.457Z,54.57
2018-02-24T16:55:30.925Z,54.59
2018-02-24T16:57:31.881Z,54.64
2018-02-24T16:58:32.409Z,54.66
2018-02-24T16:59:32.832Z,54.66
2018-02-24T17:00:33.306Z,54.57
2018-02-24T17:01:33.781Z,54.59
2018-02-24T17:02:34.250Z,54.67
2018-02-24T17:03:34.732Z,54.63
2018-02-24T17:04:35.208Z,54.75
2018-02-24T17:05:35.681Z,54.53
2018-02-24T17:06:36.149Z,54.67
2018-02-24T17:07:36.628Z,54.70
2018-02-24T17:09:37.577Z,54.66
2018-02-24T17:10:38.259Z,54.74
2018-02-24T17:11:38.530Z,54.91
2018-02-24T17:13:39.473Z,55.01
2018-02-24T17:14:39.958Z,55.01
2018-02-24T17:15:40.431Z,54.95
2018-02-24T17:16:40.904Z,54.94
2018-02-24T17:17:41.379Z,54.96
2018-02-24T17:18:53.638Z,54.93
2018-02-24T17:19:42.332Z,55.07
2018-02-24T17:20:42.807Z,55.24
2018-02-24T17:21:43.278Z,55.12
2018-02-24T17:22:43.754Z,55.14
2018-02-24T17:23:44.230Z,55.37
2018-02-24T17:24:44.701Z,55.22
2018-02-24T17:25:45.180Z,55.44
2018-02-24T17:26:45.655Z,55.41
2018-02-24T17:27:46.130Z,55.43
2018-02-24T17:28:46.599Z,55.31
2018-02-24T17:29:47.081Z,55.30
2018-02-24T17:30:47.553Z,55.13
2018-02-24T17:31:48.034Z,55.06
2018-02-24T17:32:48.501Z,55.46
2018-02-24T17:33:49.026Z,55.49
2018-02-24T17:34:49.448Z,55.42
2018-02-24T17:35:49.916Z,55.33
2018-02-24T17:36:50.400Z,55.24
2018-02-24T17:37:50.866Z,55.38
2018-02-24T17:38:51.339Z,55.37
2018-02-24T17:39:51.805Z,55.34
2018-02-24T17:40:52.284Z,55.33
2018-02-24T17:41:52.756Z,55.24
2018-02-24T17:42:53.227Z,55.09
2018-02-24T17:45:54.640Z,55.13
2018-02-24T17:46:55.108Z,54.95
2018-02-24T17:47:55.585Z,55.06
2018-02-24T17:48:56.054Z,54.97
2018-02-24T17:49:56.528Z,54.97
2018-02-24T17:50:56.989Z,54.91
2018-02-24T17:51:57.467Z,54.87
2018-02-24T17:52:57.995Z,54.78
2018-02-24T17:53:58.406Z,54.66
2018-02-24T17:54:58.878Z,54.60
2018-02-24T17:55:59.349Z,54.56
2018-02-24T17:56:59.820Z,54.65
2018-02-24T17:58:00.283Z,54.55
2018-02-24T17:59:00.760Z,54.38
2018-02-24T18:01:01.703Z,54.40
2018-02-24T18:02:02.173Z,54.39
2018-02-24T18:03:02.642Z,54.33
2018-02-24T18:04:03.114Z,54.38
2018-02-24T18:06:04.063Z,54.38
2018-02-24T18:07:04.526Z,54.40
2018-02-24T18:08:05.001Z,54.22
2018-02-24T18:09:05.464Z,54.16
2018-02-24T18:10:05.939Z,54.21
2018-02-24T18:11:06.465Z,54.18
2018-02-24T18:12:06.918Z,54.18
2018-02-24T18:13:07.354Z,54.23
2018-02-24T18:14:07.828Z,54.17
2018-02-24T18:15:08.296Z,53.99
2018-02-24T18:16:08.768Z,53.84
2018-02-24T18:17:09.239Z,53.93
2018-02-24T18:18:09.726Z,53.87
2018-02-24T18:19:10.182Z,53.98
2018-02-24T18:20:10.650Z,53.98
2018-02-24T18:21:11.127Z,53.89
2018-02-24T18:22:11.598Z,53.83
2018-02-24T18:23:12.070Z,53.74
2018-02-24T18:24:12.543Z,53.62
2018-02-24T18:25:13.215Z,53.68
2018-02-24T18:27:13.954Z,53.65
2018-02-24T18:28:14.633Z,53.62
2018-02-24T18:29:14.903Z,53.62
2018-02-24T18:30:15.378Z,53.62
2018-02-24T18:31:15.894Z,53.45
2018-02-24T18:32:16.320Z,53.42
2018-02-24T18:33:16.792Z,53.39
2018-02-24T18:34:17.264Z,53.45
2018-02-24T18:35:17.737Z,53.39
2018-02-24T18:36:18.259Z,53.42
2018-02-24T18:37:18.681Z,53.39
2018-02-24T18:38:19.149Z,53.30
2018-02-24T18:39:19.626Z,53.21
2018-02-24T18:40:20.100Z,53.27
2018-02-24T18:41:20.621Z,53.25
2018-02-24T18:42:21.038Z,53.27
2018-02-24T18:44:21.991Z,53.27
2018-02-24T18:46:22.935Z,53.33
2018-02-24T18:47:23.411Z,53.36
2018-02-24T18:48:23.881Z,53.27
2018-02-24T18:49:24.348Z,53.24
2018-02-24T18:50:24.826Z,53.35
2018-02-24T18:51:25.300Z,53.38
2018-02-24T18:52:25.773Z,53.44
2018-02-24T18:53:26.240Z,53.38
2018-02-24T18:54:26.721Z,53.38
2018-02-24T18:55:27.189Z,53.37
2018-02-24T18:56:27.665Z,53.37
2018-02-24T18:57:28.138Z,53.37
2018-02-24T18:58:28.611Z,53.31
2018-02-24T18:59:29.083Z,53.31
2018-02-24T19:00:29.551Z,53.28
2018-02-24T19:01:30.030Z,53.36
2018-02-24T19:02:30.502Z,53.39
2018-02-24T19:03:30.976Z,53.33
2018-02-24T19:04:31.448Z,53.30
2018-02-24T19:05:31.921Z,53.47
2018-02-24T19:06:32.393Z,53.55
2018-02-24T19:07:32.867Z,53.58
2018-02-24T19:08:33.339Z,53.58
2018-02-24T19:09:33.814Z,53.64
2018-02-24T19:10:34.287Z,53.69
2018-02-24T19:11:34.805Z,53.66
2018-02-24T19:12:35.232Z,53.69
2018-02-24T19:13:35.705Z,53.74
2018-02-24T19:14:36.177Z,53.74
2018-02-24T19:15:36.685Z,53.85
2018-02-24T19:16:48.755Z,53.70
2018-02-24T19:17:37.596Z,53.82
2018-02-24T19:18:38.066Z,53.76
2018-02-24T19:20:39.015Z,53.84
2018-02-24T19:21:39.490Z,53.78
2018-02-24T19:22:39.955Z,54.01
2018-02-24T19:24:40.908Z,53.80
2018-02-24T19:25:41.382Z,53.89
2018-02-24T19:26:41.853Z,53.85
2018-02-24T19:27:42.328Z,53.82
2018-02-24T19:28:42.803Z,53.85
2018-02-24T19:29:43.268Z,53.82
2018-02-24T19:30:43.767Z,53.78
2018-02-24T19:31:44.220Z,53.81
2018-02-24T19:32:44.692Z,53.72
2018-02-24T19:33:45.161Z,53.57
2018-02-24T19:34:45.637Z,53.69
2018-02-24T19:35:46.111Z,53.59
2018-02-24T19:36:46.637Z,53.53
2018-02-24T19:37:47.060Z,53.41
2018-02-24T19:38:47.529Z,53.41
2018-02-24T19:39:48.004Z,53.35
2018-02-24T19:40:48.471Z,53.38
2018-02-24T19:41:49.001Z,53.32
2018-02-24T19:42:49.422Z,53.23
2018-02-24T19:43:49.895Z,53.25
2018-02-24T19:44:50.363Z,53.13
2018-02-24T19:45:50.840Z,53.19
2018-02-24T19:46:51.313Z,53.22
2018-02-24T19:47:51.786Z,53.30
2018-02-24T19:48:52.260Z,53.21
2018-02-24T19:50:53.205Z,53.17
2018-02-24T19:51:53.672Z,53.17
2018-02-24T19:52:54.151Z,53.43
2018-02-24T19:53:54.627Z,53.31
2018-02-24T19:54:55.096Z,53.19
2018-02-24T19:55:55.567Z,53.11
2018-02-24T19:56:56.044Z,53.25
2018-02-24T19:57:56.515Z,53.10
2018-02-24T19:58:56.986Z,53.27
2018-02-24T20:00:57.932Z,53.27
2018-02-24T20:01:58.406Z,53.21
2018-02-24T20:02:58.873Z,53.26
2018-02-24T20:03:59.349Z,53.14
2018-02-24T20:04:59.829Z,53.14
2018-02-24T20:06:00.297Z,53.20
2018-02-24T20:07:00.769Z,53.54
2018-02-24T20:08:01.241Z,54.44
2018-02-24T20:09:01.715Z,54.18
2018-02-24T20:10:02.194Z,54.35
2018-02-24T20:11:02.659Z,54.75
2018-02-24T20:12:03.182Z,54.66
2018-02-24T20:13:03.605Z,54.51
2018-02-24T20:14:04.077Z,54.48
2018-02-24T20:15:04.549Z,54.22
2018-02-24T20:17:05.546Z,54.27
2018-02-24T20:18:05.968Z,54.21
2018-02-24T20:19:06.512Z,54.21
2018-02-24T20:20:06.915Z,54.32
2018-02-24T20:21:07.385Z,54.38
2018-02-24T20:22:07.911Z,54.46
2018-02-24T20:24:08.802Z,54.57
2018-02-24T20:25:09.270Z,54.69
2018-02-24T20:26:09.749Z,54.83
2018-02-24T20:27:10.271Z,54.83
2018-02-24T20:28:10.693Z,55.11
2018-02-24T20:29:11.165Z,55.14
2018-02-24T20:30:11.638Z,55.11
2018-02-24T20:31:12.109Z,55.79
2018-02-24T20:32:12.625Z,55.91
2018-02-24T20:33:13.054Z,56.02
2018-02-24T20:34:13.531Z,55.85
2018-02-24T20:35:13.998Z,55.64
2018-02-24T20:36:14.466Z,55.64
2018-02-24T20:37:14.943Z,55.61
2018-02-24T20:38:15.415Z,55.50
2018-02-24T20:39:15.888Z,55.44
2018-02-24T20:40:16.361Z,55.29
2018-02-24T20:41:16.834Z,55.32
2018-02-24T20:43:17.822Z,55.12
2018-02-24T20:44:18.249Z,55.06
2018-02-24T20:45:18.722Z,55.08
2018-02-24T20:46:19.198Z,55.08
2018-02-24T20:47:19.660Z,55.02
2018-02-24T20:48:20.137Z,55.08
2018-02-24T20:49:20.611Z,55.02
2018-02-24T20:50:21.083Z,55.02
2018-02-24T20:51:21.562Z,55.22
2018-02-24T20:52:22.032Z,55.27
2018-02-24T20:53:22.500Z,55.53
2018-02-24T20:54:22.967Z,55.75
2018-02-24T20:55:23.447Z,55.69
2018-02-24T20:58:24.907Z,55.83
2018-02-24T20:59:25.333Z,56.03
2018-02-24T21:00:25.805Z,56.09
2018-02-24T21:01:26.278Z,56.03
2018-02-24T21:02:26.750Z,55.94
2018-02-24T21:04:27.694Z,56.19
2018-02-24T21:05:28.160Z,56.68
2018-02-24T21:07:29.109Z,56.79
2018-02-24T21:08:29.582Z,57.43
2018-02-24T21:09:30.053Z,57.83
2018-02-24T21:10:30.527Z,57.77
2018-02-24T21:11:30.998Z,57.88
2018-02-24T21:12:31.475Z,58.75
2018-02-24T21:13:31.942Z,59.41
2018-02-24T21:14:32.417Z,59.88
2018-02-24T21:15:32.887Z,59.72
2018-02-24T21:16:33.353Z,59.91
2018-02-24T21:17:34.032Z,60.49
2018-02-24T21:19:34.978Z,60.68
2018-02-24T21:20:35.247Z,60.76
2018-02-24T21:21:35.717Z,61.26
2018-02-24T21:23:48.907Z,62.10
2018-02-24T21:24:37.132Z,62.10
2018-02-24T21:25:37.607Z,62.18
2018-02-24T21:26:38.079Z,62.48
2018-02-24T21:27:38.546Z,62.81
2018-02-24T21:28:39.022Z,62.80
2018-02-24T21:30:39.968Z,63.19
2018-02-24T21:31:40.438Z,63.21
2018-02-24T21:32:40.911Z,63.00
2018-02-24T21:34:41.854Z,63.24
2018-02-24T21:35:42.324Z,63.46
2018-02-24T21:36:42.797Z,63.62
2018-02-24T21:37:43.270Z,63.51
2018-02-24T21:38:43.739Z,63.40
2018-02-24T21:39:44.214Z,63.21
2018-02-24T21:40:44.685Z,63.53
2018-02-24T21:41:45.158Z,63.40
2018-02-24T21:42:45.630Z,63.56
2018-02-24T21:43:46.154Z,63.53
2018-02-24T21:44:46.575Z,63.72
2018-02-24T21:45:47.039Z,63.93
2018-02-24T21:46:47.518Z,63.96
2018-02-24T21:47:47.988Z,63.99
2018-02-24T21:48:48.462Z,64.17
2018-02-24T21:49:48.927Z,64.33
2018-02-24T21:50:49.404Z,64.57
2018-02-24T21:51:49.877Z,64.95
2018-02-24T21:52:50.349Z,65.21
2018-02-24T21:53:50.930Z,65.34
2018-02-24T21:55:51.763Z,65.71
2018-02-24T21:56:52.229Z,66.05
2018-02-24T21:57:52.709Z,66.16
2018-02-24T21:58:53.182Z,66.47
2018-02-24T21:59:53.653Z,66.61
2018-02-24T22:00:54.119Z,66.74
2018-02-24T22:01:54.596Z,66.87
2018-02-24T22:02:55.069Z,67.15
2018-02-24T22:04:06.975Z,67.05
2018-02-24T22:04:56.012Z,67.03
2018-02-24T22:05:56.486Z,67.00
2018-02-24T22:06:56.956Z,66.92
2018-02-24T22:07:57.420Z,66.89
2018-02-24T22:08:57.898Z,66.73
2018-02-24T22:09:58.371Z,66.76
2018-02-24T22:10:58.844Z,67.10
2018-02-24T22:11:59.310Z,67.25
2018-02-24T22:14:00.312Z,67.51
2018-02-24T22:15:00.732Z,67.46
2018-02-24T22:16:01.203Z,67.51
2018-02-24T22:18:02.146Z,67.70
2018-02-24T22:19:02.663Z,67.72
2018-02-24T22:21:03.563Z,67.74
2018-02-24T22:22:04.034Z,67.85
2018-02-24T22:23:04.506Z,67.85
2018-02-24T22:24:04.977Z,67.87
2018-02-24T22:25:05.449Z,67.98
2018-02-24T22:26:05.965Z,67.98
2018-02-24T22:27:06.394Z,68.13
2018-02-24T22:28:06.865Z,68.24
2018-02-24T22:29:07.337Z,68.10
2018-02-24T22:30:07.805Z,68.07
2018-02-24T22:31:08.281Z,68.28
2018-02-24T22:34:09.697Z,68.59
2018-02-24T22:35:10.174Z,68.80
2018-02-24T22:36:10.638Z,68.82
2018-02-24T22:37:11.112Z,68.74